Time;durP1;ratioP1;P1;durP2;ratioP2;P2;SDS_P1;SDS_P2;PMS_P1;PMS_P2;Temp;Humidity;BMP_temperature;BMP_pressure;BME280_temperature;BME280_humidity;BME280_pressure;Samples;Min_cycle;Max_cycle;Signal;HPM_P1;HPM_P2
2021/09/21 00:00:41;;;;;;;0.30;0.30;;;;;;;18.15;64.74;98945.28;5091501;28;20062;-83
2021/09/21 00:03:07;;;;;;;0.63;0.63;;;;;;;18.13;65.12;98927.44;5091804;28;20528;-82
2021/09/21 00:05:32;;;;;;;0.08;0.08;;;;;;;18.14;65.93;98940.94;5092724;28;20024;-83
2021/09/21 00:07:57;;;;;;;0.10;0.10;;;;;;;17.96;66.02;98934.78;5095140;28;20031;-82
2021/09/21 00:10:23;;;;;;;0.10;0.10;;;;;;;18.03;65.51;98951.13;5095005;28;20016;-83
2021/09/21 00:12:50;;;;;;;0.10;0.10;;;;;;;17.98;66.59;98971.38;5095388;28;20020;-84
2021/09/21 00:15:17;;;;;;;0.13;0.13;;;;;;;17.64;67.14;98934.44;5095434;28;20020;-83
2021/09/21 00:17:43;;;;;;;0.77;0.47;;;;;;;17.73;67.26;98951.09;5094861;28;20058;-82
2021/09/21 00:20:10;;;;;;;0.88;0.68;;;;;;;17.50;66.82;98896.78;5094723;28;20040;-82
2021/09/21 00:22:36;;;;;;;0.20;0.20;;;;;;;17.80;67.26;98942.34;5094929;28;20028;-81
2021/09/21 00:25:03;;;;;;;0.52;0.52;;;;;;;17.83;67.58;98943.44;5094832;28;20035;-82
2021/09/21 00:27:28;;;;;;;1.45;1.35;;;;;;;17.92;67.06;98960.09;5095490;28;20020;-82
2021/09/21 00:29:54;;;;;;;0.10;0.10;;;;;;;17.78;66.89;98918.94;5095128;28;20388;-82
2021/09/21 00:32:24;;;;;;;0.25;0.25;;;;;;;17.72;66.43;98907.63;5094862;28;20020;-83
2021/09/21 00:34:50;;;;;;;0.60;0.60;;;;;;;17.98;66.50;98963.78;5095114;28;20119;-83
2021/09/21 00:37:17;;;;;;;0.30;0.30;;;;;;;17.52;66.54;98882.34;5094969;28;20441;-84
2021/09/21 00:39:44;;;;;;;1.55;1.30;;;;;;;17.81;65.79;98921.53;5094508;28;20467;-83
2021/09/21 00:42:11;;;;;;;0.55;0.55;;;;;;;17.90;66.05;98923.50;5094917;28;20027;-82
2021/09/21 00:44:37;;;;;;;0.20;0.20;;;;;;;17.82;66.55;98937.06;5094819;28;20020;-83
2021/09/21 00:47:06;;;;;;;0.52;0.52;;;;;;;17.82;66.03;98956.63;5095708;28;20094;-82
2021/09/21 00:49:33;;;;;;;2.42;1.00;;;;;;;17.87;66.12;98972.72;5094597;28;20411;-82
2021/09/21 00:51:59;;;;;;;0.50;0.35;;;;;;;17.94;65.72;98973.59;5094444;28;20465;-81
2021/09/21 00:54:25;;;;;;;2.47;1.08;;;;;;;17.88;66.12;98959.53;5094183;28;20120;-83
2021/09/21 00:56:52;;;;;;;0.63;0.63;;;;;;;17.80;65.54;98973.09;5094966;28;20040;-82
2021/09/21 00:59:17;;;;;;;0.30;0.30;;;;;;;17.79;65.97;98993.91;5094001;28;20051;-81
2021/09/21 01:01:43;;;;;;;1.00;0.65;;;;;;;17.47;65.84;98969.63;5094419;28;20413;-83
2021/09/21 01:04:09;;;;;;;0.32;0.32;;;;;;;17.65;65.54;98977.91;5094381;28;20120;-90
2021/09/21 01:06:34;;;;;;;0.70;0.70;;;;;;;17.52;66.01;98984.94;5095372;28;20056;-83
2021/09/21 01:09:00;;;;;;;0.77;0.77;;;;;;;17.32;66.56;98963.19;5094268;28;20489;-81
2021/09/21 01:11:25;;;;;;;0.75;0.75;;;;;;;17.31;66.66;98987.56;5094129;28;20026;-84
2021/09/21 01:13:51;;;;;;;2.10;1.95;;;;;;;17.20;67.05;98964.19;5093951;28;20035;-85
2021/09/21 01:16:19;;;;;;;0.60;0.60;;;;;;;17.28;67.22;98987.75;5094192;28;20104;-84
2021/09/21 01:18:45;;;;;;;0.40;0.40;;;;;;;17.05;67.16;98948.19;5093794;28;20023;-85
2021/09/21 01:21:12;;;;;;;0.80;0.80;;;;;;;16.98;66.98;98944.97;5094078;28;20119;-84
2021/09/21 01:23:47;;;;;;;1.63;0.60;;;;;;;17.19;67.33;98991.34;5095273;28;20448;-83
2021/09/21 01:26:12;;;;;;;0.68;0.68;;;;;;;16.97;67.06;98949.75;5094483;28;20027;-82
2021/09/21 01:28:38;;;;;;;0.75;0.75;;;;;;;17.25;65.82;99002.66;5093657;28;20084;-82
2021/09/21 01:31:03;;;;;;;0.35;0.35;;;;;;;17.17;66.42;99001.47;5093768;28;20050;-83
2021/09/21 01:33:29;;;;;;;1.00;1.00;;;;;;;17.10;66.74;99010.97;5094453;28;20450;-84
2021/09/21 01:35:54;;;;;;;0.52;0.52;;;;;;;17.11;66.73;98994.97;5093651;28;20012;-81
2021/09/21 01:38:20;;;;;;;0.20;0.20;;;;;;;17.03;66.46;99011.31;5094431;28;20024;-83
2021/09/21 01:40:45;;;;;;;0.55;0.55;;;;;;;16.88;66.57;98982.50;5095224;28;20032;-83
2021/09/21 01:43:10;;;;;;;0.70;0.70;;;;;;;17.12;66.49;99019.63;5093674;28;20120;-84
2021/09/21 01:45:36;;;;;;;0.57;0.57;;;;;;;16.90;66.15;99008.72;5093664;28;20046;-83
2021/09/21 01:48:01;;;;;;;0.52;0.52;;;;;;;16.82;66.31;98985.19;5093601;28;20031;-83
2021/09/21 01:50:38;;;;;;;2.50;0.77;;;;;;;16.84;66.56;99013.41;5093493;28;20020;-85
2021/09/21 01:58:51;;;;;;;0.35;0.35;;;;;;;16.80;66.61;99014.81;5033373;28;20048;-84
2021/09/21 02:01:22;;;;;;;3.20;1.65;;;;;;;16.66;66.21;98986.34;5077123;28;20028;-85
2021/09/21 02:03:50;;;;;;;0.45;0.45;;;;;;;16.76;67.65;99014.97;5092662;28;20042;-83
2021/09/21 02:06:16;;;;;;;0.32;0.32;;;;;;;16.61;67.42;99003.72;5089967;28;20016;-81
2021/09/21 02:08:42;;;;;;;2.72;0.93;;;;;;;16.72;66.36;99030.34;5092250;28;20020;-83
2021/09/21 02:11:08;;;;;;;0.98;0.82;;;;;;;16.70;67.01;99016.09;5092594;28;20035;-84
2021/09/21 02:13:34;;;;;;;0.63;0.63;;;;;;;16.71;67.45;99032.34;5092960;28;20460;-84
2021/09/21 02:16:00;;;;;;;0.52;0.52;;;;;;;16.66;66.32;99017.03;5091841;28;20028;-83
2021/09/21 02:18:25;;;;;;;1.27;1.17;;;;;;;16.39;67.63;98985.63;5093314;28;20031;-82
2021/09/21 02:20:51;;;;;;;0.30;0.30;;;;;;;16.48;67.57;99013.50;5090861;28;20048;-84
2021/09/21 02:23:17;;;;;;;0.20;0.20;;;;;;;16.63;68.29;99031.16;5092776;28;20026;-84
2021/09/21 02:25:42;;;;;;;1.40;0.90;;;;;;;16.57;68.72;99046.94;5092026;28;20032;-83
2021/09/21 02:28:09;;;;;;;0.50;0.50;;;;;;;16.58;68.37;99020.56;5091929;28;20034;-84
2021/09/21 02:30:35;;;;;;;5.25;1.25;;;;;;;16.62;68.90;99038.75;5091884;28;20028;-83
2021/09/21 02:33:01;;;;;;;1.88;0.68;;;;;;;16.21;69.24;98994.81;5093119;28;20052;-82
2021/09/21 02:35:27;;;;;;;2.15;1.67;;;;;;;16.61;69.35;99053.94;5092263;28;20031;-83
2021/09/21 02:37:53;;;;;;;2.17;1.45;;;;;;;16.71;70.02;99060.25;5092435;28;20023;-85
2021/09/21 02:40:18;;;;;;;0.25;0.25;;;;;;;16.59;69.47;99053.63;5092305;28;20391;-83
2021/09/21 02:42:44;;;;;;;0.55;0.55;;;;;;;16.59;69.11;99058.41;5092784;28;20085;-84
2021/09/21 02:45:10;;;;;;;0.55;0.55;;;;;;;16.66;69.85;99055.31;5092376;28;20468;-84
2021/09/21 02:47:36;;;;;;;0.55;0.55;;;;;;;16.10;69.29;98959.03;5092358;28;20020;-85
2021/09/21 02:50:03;;;;;;;1.63;1.35;;;;;;;16.21;68.75;98987.19;5093383;28;20031;-83
2021/09/21 02:52:29;;;;;;;0.38;0.38;;;;;;;16.64;69.01;99055.78;5092202;28;20028;-83
2021/09/21 02:54:54;;;;;;;0.95;0.95;;;;;;;16.64;68.68;99057.78;5092404;28;20032;-83
2021/09/21 02:57:20;;;;;;;0.55;0.55;;;;;;;16.51;69.53;99037.66;5092104;28;20016;-83
2021/09/21 02:59:45;;;;;;;4.65;1.85;;;;;;;16.69;68.73;99073.94;5091609;28;20023;-83
2021/09/21 03:02:10;;;;;;;0.47;0.47;;;;;;;16.53;69.34;99054.69;5092123;28;20023;-82
2021/09/21 03:04:40;;;;;;;0.50;0.50;;;;;;;16.63;68.86;99064.63;5092722;28;20050;-83
2021/09/21 03:07:09;;;;;;;1.38;1.27;;;;;;;16.57;69.31;99074.84;5092952;28;20019;-83
2021/09/21 03:17:28;;;;;;;0.88;0.65;;;;;;;16.37;69.64;99072.53;5093499;28;20035;-82
2021/09/21 03:19:55;;;;;;;1.27;1.27;;;;;;;16.08;69.64;99045.16;5091224;28;20101;-83
2021/09/21 03:22:22;;;;;;;1.15;1.15;;;;;;;16.12;70.75;99070.84;5093232;28;20027;-81
2021/09/21 03:24:48;;;;;;;3.80;1.70;;;;;;;16.04;71.86;99091.91;5091522;28;20469;-81
2021/09/21 03:27:13;;;;;;;1.40;1.30;;;;;;;15.78;71.86;99065.59;5092718;28;20024;-81
2021/09/21 03:29:39;;;;;;;0.60;0.60;;;;;;;15.85;72.51;99087.56;5093000;28;20108;-81
2021/09/21 03:32:04;;;;;;;0.88;0.32;;;;;;;15.95;72.34;99089.13;5091703;28;20024;-81
2021/09/21 03:34:32;;;;;;;0.20;0.20;;;;;;;15.62;72.05;99083.34;5091535;28;20467;-83
2021/09/21 03:36:58;;;;;;;0.60;0.60;;;;;;;15.58;71.62;99084.72;5091626;28;20085;-81
2021/09/21 03:39:23;;;;;;;1.08;1.08;;;;;;;15.49;72.92;99089.00;5091557;28;20024;-82
2021/09/21 03:41:49;;;;;;;0.98;0.98;;;;;;;15.51;72.59;99112.84;5096109;28;20073;-82
2021/09/21 03:44:14;;;;;;;1.05;0.95;;;;;;;15.42;72.43;99099.69;5095941;28;20451;-83
2021/09/21 03:46:40;;;;;;;0.90;0.90;;;;;;;15.58;72.34;99112.59;5095870;28;20461;-83
2021/09/21 03:49:05;;;;;;;0.35;0.35;;;;;;;15.48;72.13;99137.59;5096411;28;20021;-81
2021/09/21 03:51:31;;;;;;;0.45;0.45;;;;;;;15.62;72.33;99121.56;5096168;28;20074;-82
2021/09/21 03:53:56;;;;;;;0.63;0.63;;;;;;;15.38;71.75;99104.59;5095936;28;20060;-81
2021/09/21 03:56:22;;;;;;;0.63;0.63;;;;;;;15.44;71.96;99088.84;5095478;28;20431;-84
2021/09/21 03:58:47;;;;;;;0.90;0.90;;;;;;;15.51;72.48;99112.84;5095271;28;20020;-81
2021/09/21 04:01:12;;;;;;;0.30;0.30;;;;;;;15.57;71.84;99125.72;5096856;28;20031;-84
2021/09/21 04:03:38;;;;;;;0.68;0.68;;;;;;;15.35;71.54;99084.03;5095493;28;20020;-81
2021/09/21 04:06:04;;;;;;;0.43;0.43;;;;;;;15.65;71.99;99129.00;5095309;28;20451;-81
2021/09/21 04:08:29;;;;;;;0.82;0.45;;;;;;;15.50;73.05;99137.13;5095012;28;20428;-80
2021/09/21 04:10:55;;;;;;;0.77;0.77;;;;;;;15.30;72.41;99117.28;5094867;28;20020;-81
2021/09/21 04:13:20;;;;;;;0.68;0.55;;;;;;;15.45;71.74;99132.94;5094960;28;20020;-82
2021/09/21 04:15:45;;;;;;;1.02;0.95;;;;;;;15.33;71.52;99108.00;5095129;28;20028;-81
2021/09/21 04:18:11;;;;;;;1.20;1.10;;;;;;;15.50;71.13;99128.78;5094881;28;20028;-85
2021/09/21 04:20:36;;;;;;;0.50;0.50;;;;;;;15.51;71.80;99138.69;5095176;28;20113;-83
2021/09/21 04:23:02;;;;;;;0.20;0.20;;;;;;;15.71;71.42;99141.09;5094620;28;20486;-80
2021/09/21 04:25:30;;;;;;;0.60;0.60;;;;;;;15.61;70.84;99136.75;5094645;28;20035;-81
2021/09/21 04:27:56;;;;;;;0.82;0.82;;;;;;;15.77;70.29;99148.38;5094504;28;20019;-83
2021/09/21 04:30:22;;;;;;;0.80;0.77;;;;;;;15.57;70.78;99122.16;5095987;28;20382;-83
2021/09/21 04:32:51;;;;;;;0.38;0.38;;;;;;;15.70;70.41;99126.38;5095398;28;20047;-80
2021/09/21 04:35:17;;;;;;;0.28;0.28;;;;;;;15.98;69.32;99134.78;5094392;28;20028;-82
2021/09/21 04:37:43;;;;;;;0.75;0.75;;;;;;;15.90;69.97;99123.19;5096342;28;20111;-81
2021/09/21 04:40:09;;;;;;;0.60;0.60;;;;;;;15.94;69.94;99132.16;5094408;28;20445;-83
2021/09/21 04:42:35;;;;;;;1.35;0.52;;;;;;;15.96;70.12;99148.44;5094634;28;20020;-82
2021/09/21 04:45:01;;;;;;;0.75;0.63;;;;;;;15.76;69.78;99109.84;5094395;28;20382;-82
2021/09/21 04:47:27;;;;;;;1.30;1.10;;;;;;;16.13;67.92;99144.13;5094003;28;20103;-82
2021/09/21 04:49:52;;;;;;;1.42;0.50;;;;;;;16.22;68.45;99156.03;5093928;28;20103;-84
2021/09/21 04:52:18;;;;;;;0.40;0.40;;;;;;;16.00;69.04;99129.53;5093460;28;20012;-83
2021/09/21 04:54:43;;;;;;;0.30;0.30;;;;;;;16.04;68.60;99139.28;5093648;28;20049;-83
2021/09/21 04:57:10;;;;;;;0.47;0.47;;;;;;;16.43;68.68;99176.66;5094179;28;20024;-80
2021/09/21 04:59:35;;;;;;;0.47;0.47;;;;;;;16.49;68.48;99169.22;5094233;28;20490;-81
2021/09/21 05:02:01;;;;;;;2.35;1.60;;;;;;;16.63;68.22;99165.84;5093509;28;20024;-79
2021/09/21 05:04:26;;;;;;;1.75;0.80;;;;;;;16.54;68.13;99165.03;5093521;28;20039;-80
2021/09/21 05:06:52;;;;;;;3.33;1.02;;;;;;;16.58;68.30;99163.63;5093138;28;20035;-79
2021/09/21 05:09:17;;;;;;;1.75;0.57;;;;;;;16.62;68.04;99141.97;5093621;28;20031;-83
2021/09/21 05:11:45;;;;;;;0.90;0.90;;;;;;;16.90;67.41;99162.22;5093141;28;20028;-79
2021/09/21 05:14:12;;;;;;;0.65;0.65;;;;;;;16.53;67.74;99119.63;5094263;28;20020;-80
2021/09/21 05:16:38;;;;;;;0.93;0.73;;;;;;;16.58;67.73;99130.16;5093412;28;20056;-80
2021/09/21 05:19:04;;;;;;;3.13;0.80;;;;;;;16.81;68.11;99156.69;5093205;28;20051;-80
2021/09/21 05:21:29;;;;;;;0.82;0.80;;;;;;;16.76;68.24;99171.25;5093538;28;20032;-80
2021/09/21 05:23:55;;;;;;;0.55;0.47;;;;;;;16.70;68.11;99153.56;5093575;28;20024;-81
2021/09/21 05:26:21;;;;;;;0.40;0.40;;;;;;;16.67;67.79;99151.72;5094051;28;20107;-81
2021/09/21 05:28:46;;;;;;;0.50;0.50;;;;;;;16.67;67.88;99157.31;5093401;28;20023;-81
2021/09/21 05:31:12;;;;;;;1.50;0.98;;;;;;;16.82;67.81;99168.63;5093978;28;20022;-83
2021/09/21 05:33:37;;;;;;;0.43;0.43;;;;;;;16.84;67.77;99160.53;5093652;28;20028;-83
2021/09/21 05:36:04;;;;;;;0.50;0.50;;;;;;;16.92;68.54;99168.13;5093780;28;20067;-80
2021/09/21 05:38:30;;;;;;;0.47;0.47;;;;;;;16.73;67.72;99144.28;5093178;28;20034;-81
2021/09/21 05:40:55;;;;;;;1.25;1.10;;;;;;;17.09;67.38;99174.13;5093221;28;20016;-81
2021/09/21 08:13:08;;;;;;;0.20;0.20;;;;;;;20.76;48.70;99180.13;5092167;28;20046;-82
2021/09/21 08:15:34;;;;;;;0.70;0.52;;;;;;;21.20;47.97;99232.47;5090901;28;20028;-81
2021/09/21 08:18:01;;;;;;;2.47;0.20;;;;;;;21.35;47.28;99227.47;5091817;28;20058;-80
2021/09/21 08:20:27;;;;;;;0.65;0.65;;;;;;;21.29;45.79;99209.78;5092674;28;20035;-82
2021/09/21 08:22:54;;;;;;;0.40;0.40;;;;;;;21.45;48.81;99224.00;5091023;28;20016;-81
2021/09/21 08:25:20;;;;;;;0.17;0.17;;;;;;;21.12;45.31;99201.94;5092056;28;20103;-81
2021/09/21 08:27:46;;;;;;;0.10;0.10;;;;;;;21.49;47.03;99251.91;5093563;28;20489;-82
2021/09/21 08:30:13;;;;;;;0.10;0.10;;;;;;;21.42;46.77;99239.06;5094017;28;20021;-81
2021/09/21 08:32:39;;;;;;;0.30;0.30;;;;;;;21.33;46.10;99227.22;5094045;28;20020;-83
2021/09/21 08:35:05;;;;;;;0.20;0.20;;;;;;;21.37;46.48;99236.19;5094488;28;20037;-83
2021/09/21 08:37:31;;;;;;;0.30;0.30;;;;;;;21.55;46.76;99246.31;5094643;28;20092;-82
2021/09/21 08:39:56;;;;;;;1.33;0.50;;;;;;;21.37;46.24;99211.66;5094520;28;20452;-79
2021/09/21 08:42:22;;;;;;;0.50;0.50;;;;;;;21.17;46.76;99182.84;5095780;28;20020;-83
2021/09/21 08:44:48;;;;;;;0.08;0.05;;;;;;;21.67;47.75;99234.66;5094442;28;20388;-82
2021/09/21 08:47:13;;;;;;;0.13;0.13;;;;;;;21.68;45.98;99227.78;5095761;28;20065;-83
2021/09/21 08:49:39;;;;;;;0.17;0.17;;;;;;;21.68;48.20;99232.63;5094217;28;20142;-83
2021/09/21 08:52:06;;;;;;;0.20;0.20;;;;;;;21.71;45.78;99207.06;5094292;28;20459;-82
2021/09/21 08:54:31;;;;;;;0.13;0.13;;;;;;;21.80;46.60;99218.16;5094211;28;20024;-83
2021/09/21 08:56:59;;;;;;;0.17;0.17;;;;;;;21.91;46.53;99226.66;5094312;28;20384;-84
2021/09/21 08:59:29;;;;;;;;;;;;;;;21.93;47.12;99231.78;5095551;28;20364;-84
2021/09/21 09:01:54;;;;;;;0.43;0.43;;;;;;;21.91;46.12;99220.25;5095857;28;19904;-81
2021/09/21 09:04:20;;;;;;;0.13;0.13;;;;;;;22.06;46.34;99217.31;5094454;28;20069;-83
2021/09/21 09:06:52;;;;;;;0.20;0.20;;;;;;;22.06;46.71;99208.88;5094061;28;20360;-87
2021/09/21 09:09:22;;;;;;;0.08;0.08;;;;;;;22.19;47.79;99209.97;5095491;28;20055;-83
2021/09/21 09:11:53;;;;;;;0.57;0.43;;;;;;;22.20;46.57;99210.72;5093929;28;20048;-83
2021/09/21 09:14:34;;;;;;;1.40;0.32;;;;;;;22.20;46.03;99189.00;5093911;28;20089;-81
2021/09/21 09:17:01;;;;;;;0.20;0.20;;;;;;;22.05;45.58;99170.75;5093837;28;20065;-83
2021/09/21 09:19:32;;;;;;;0.88;0.30;;;;;;;22.23;45.87;99188.00;5093493;28;20043;-83
2021/09/21 09:22:07;;;;;;;0.38;0.38;;;;;;;22.44;46.27;99207.53;5093624;28;20024;-84
2021/09/21 09:25:04;;;;;;;0.30;0.30;;;;;;;22.33;45.80;99154.75;5093407;28;20482;-83
2021/09/21 09:27:46;;;;;;;1.95;0.73;;;;;;;22.32;45.47;99170.09;5092883;28;20035;-84
2021/09/21 09:30:19;;;;;;;0.55;0.55;;;;;;;22.26;45.43;99141.94;5094967;28;20085;-83
2021/09/21 09:32:59;;;;;;;0.30;0.30;;;;;;;22.76;45.50;99202.56;5093372;28;20452;-82
2021/09/21 09:35:31;;;;;;;0.20;0.20;;;;;;;22.45;42.69;99211.88;5093921;28;20399;-79
2021/09/21 09:37:58;;;;;;;0.17;0.17;;;;;;;22.07;44.77;99194.28;5093289;28;20016;-82
2021/09/21 09:40:26;;;;;;;0.17;0.17;;;;;;;22.40;44.95;99171.16;5094302;28;20110;-83
2021/09/21 09:42:52;;;;;;;0.10;0.10;;;;;;;22.20;43.47;99176.97;5093471;28;20579;-82
2021/09/21 09:45:29;;;;;;;0.47;0.47;;;;;;;22.31;44.07;99194.66;5093859;28;20032;-83
2021/09/21 09:47:56;;;;;;;0.10;0.10;;;;;;;22.43;44.01;99195.47;5093149;28;20044;-82
2021/09/21 09:50:26;;;;;;;0.75;0.70;;;;;;;22.47;45.14;99184.78;5093290;28;20028;-81
2021/09/21 09:53:12;;;;;;;0.40;0.40;;;;;;;22.20;44.11;99200.25;5093393;28;20081;-83
2021/09/21 09:55:39;;;;;;;0.75;0.75;;;;;;;21.97;44.32;99178.13;5093098;28;20077;-81
2021/09/21 09:58:06;;;;;;;0.30;0.30;;;;;;;22.19;44.20;99179.00;5092791;28;20119;-81
2021/09/21 10:00:32;;;;;;;0.55;0.43;;;;;;;22.28;43.80;99201.31;5092914;28;20496;-82
2021/09/21 10:03:00;;;;;;;0.10;0.10;;;;;;;22.03;42.97;99156.41;5092729;28;20024;-83
2021/09/21 10:05:28;;;;;;;0.22;0.22;;;;;;;21.98;45.58;99157.16;5094052;28;20024;-82
2021/09/21 10:07:54;;;;;;;0.47;0.47;;;;;;;22.01;45.60;99144.88;5092803;28;20039;-82
2021/09/21 10:10:20;;;;;;;0.10;0.10;;;;;;;22.15;42.83;99160.81;5094047;28;20020;-81
2021/09/21 10:12:47;;;;;;;0.73;0.30;;;;;;;22.31;44.30;99202.34;5093637;28;20027;-81
2021/09/21 10:15:13;;;;;;;0.35;0.35;;;;;;;22.23;43.09;99195.66;5092838;28;20516;-82
2021/09/21 10:17:49;;;;;;;0.10;0.10;;;;;;;22.33;43.65;99180.09;5092887;28;20035;-81
2021/09/21 10:20:15;;;;;;;0.95;0.60;;;;;;;22.64;42.84;99190.47;5093188;28;20100;-82
2021/09/21 10:22:40;;;;;;;0.80;0.57;;;;;;;23.00;41.62;99174.69;5092493;28;20092;-82
2021/09/21 10:25:08;;;;;;;0.30;0.30;;;;;;;23.25;42.23;99184.97;5091864;28;20047;-81
2021/09/21 10:27:38;;;;;;;0.20;0.20;;;;;;;23.61;41.57;99176.78;5091026;28;20076;-81
2021/09/21 10:30:09;;;;;;;0.43;0.43;;;;;;;23.48;41.12;99178.09;5091329;28;20493;-83
2021/09/21 10:32:42;;;;;;;0.15;0.15;;;;;;;23.07;40.59;99107.31;5092720;28;20032;-81
2021/09/21 10:35:13;;;;;;;0.45;0.28;;;;;;;23.07;40.21;99137.56;5095764;28;20028;-83
2021/09/21 10:37:38;;;;;;;0.00;0.00;;;;;;;23.10;40.98;99185.19;5092753;28;20057;-84
2021/09/21 10:40:06;;;;;;;0.10;0.10;;;;;;;23.03;43.08;99153.94;5090600;28;20043;-82
2021/09/21 10:42:32;;;;;;;0.38;0.38;;;;;;;23.47;42.00;99172.94;5091098;28;20536;-82
2021/09/21 10:45:01;;;;;;;0.10;0.10;;;;;;;23.33;41.93;99106.28;5091711;28;20032;-83
2021/09/21 10:47:29;;;;;;;0.80;0.65;;;;;;;23.89;40.69;99185.97;5091633;28;20009;-82
2021/09/21 10:50:13;;;;;;;0.20;0.20;;;;;;;23.42;39.98;99115.25;5090775;28;20437;-84
2021/09/21 10:52:39;;;;;;;0.90;0.35;;;;;;;23.83;40.04;99171.09;5090661;28;20154;-85
2021/09/21 10:55:12;;;;;;;0.90;0.50;;;;;;;23.32;40.86;99130.91;5090732;28;20476;-82
2021/09/21 10:57:44;;;;;;;0.05;0.05;;;;;;;23.94;40.52;99171.09;5091764;28;20032;-83
2021/09/21 11:00:19;;;;;;;0.08;0.08;;;;;;;23.86;41.37;99167.28;5091404;28;20028;-82
2021/09/21 11:02:48;;;;;;;0.60;0.55;;;;;;;23.98;40.10;99151.84;5089694;28;20120;-83
2021/09/21 11:05:16;;;;;;;0.30;0.30;;;;;;;24.02;39.74;99160.81;5089051;28;20043;-82
2021/09/21 11:07:59;;;;;;;0.45;0.35;;;;;;;23.99;40.50;99115.91;5090419;28;20043;-81
2021/09/21 11:10:28;;;;;;;0.20;0.20;;;;;;;23.84;39.50;99150.06;5086170;28;20031;-84
2021/09/21 11:12:54;;;;;;;0.43;0.35;;;;;;;24.02;39.55;99166.44;5092628;28;20016;-82
2021/09/21 11:15:24;;;;;;;0.52;0.52;;;;;;;23.72;40.54;99109.06;5092416;28;20024;-81
2021/09/21 11:17:59;;;;;;;0.20;0.20;;;;;;;23.76;41.62;99141.34;5090777;28;20032;-82
2021/09/21 11:20:25;;;;;;;0.40;0.40;;;;;;;23.68;41.16;99142.41;5092743;28;20097;-83
2021/09/21 11:22:50;;;;;;;0.08;0.08;;;;;;;23.76;39.97;99169.59;5091583;28;20475;-81
2021/09/21 11:25:16;;;;;;;0.85;0.77;;;;;;;23.65;39.72;99160.38;5091586;28;20482;-82
2021/09/21 11:27:42;;;;;;;0.20;0.20;;;;;;;23.84;40.78;99148.03;5092554;28;20031;-81
2021/09/21 11:30:31;;;;;;;0.90;0.90;;;;;;;24.15;40.16;99152.56;5092097;28;20051;-84
2021/09/21 11:32:56;;;;;;;0.28;0.28;;;;;;;23.93;39.61;99113.84;5063226;28;20032;-82
2021/09/21 11:35:22;;;;;;;0.10;0.10;;;;;;;23.97;40.01;99158.00;5091948;28;20077;-84
2021/09/21 11:37:52;;;;;;;0.30;0.30;;;;;;;23.74;40.23;99151.66;5091602;28;20476;-82
2021/09/21 11:40:34;;;;;;;0.10;0.10;;;;;;;23.74;40.82;99151.66;5091505;28;20078;-81
2021/09/21 11:43:01;;;;;;;0.10;0.10;;;;;;;23.59;39.44;99131.41;5091880;28;20122;-80
2021/09/21 11:45:28;;;;;;;0.47;0.47;;;;;;;23.13;40.40;99118.59;5091700;28;20031;-82
2021/09/21 11:47:54;;;;;;;1.03;0.87;;;;;;;23.15;40.69;99137.81;5091728;28;20091;-82
2021/09/21 11:50:31;;;;;;;0.52;0.52;;;;;;;23.24;40.71;99149.59;5091395;28;20391;-82
2021/09/21 11:53:00;;;;;;;0.10;0.10;;;;;;;22.93;41.38;99104.72;5093303;28;20047;-84
2021/09/21 11:55:29;;;;;;;0.38;0.38;;;;;;;23.04;41.63;99124.47;5091545;28;20074;-82
2021/09/21 11:57:55;;;;;;;0.20;0.20;;;;;;;22.97;41.30;99122.91;5091406;28;20468;-83
2021/09/21 12:00:24;;;;;;;0.65;0.47;;;;;;;22.96;41.33;99090.41;5091601;28;20110;-83
2021/09/21 12:02:54;;;;;;;0.60;0.60;;;;;;;23.24;41.52;99098.84;5094967;28;20027;-83
2021/09/21 12:05:20;;;;;;;0.30;0.30;;;;;;;23.12;41.69;99075.53;5095321;28;20051;-82
2021/09/21 12:07:46;;;;;;;0.15;0.15;;;;;;;23.41;40.66;99079.84;5095096;28;20027;-81
2021/09/21 12:10:13;;;;;;;0.43;0.43;;;;;;;23.68;41.09;99098.06;5095309;28;20020;-81
2021/09/21 12:12:39;;;;;;;0.20;0.20;;;;;;;23.86;40.39;99124.94;5094827;28;20032;-81
2021/09/21 12:15:05;;;;;;;0.40;0.40;;;;;;;23.73;40.35;99102.91;5096375;28;20024;-82
2021/09/21 12:17:40;;;;;;;0.28;0.28;;;;;;;24.05;40.50;99125.88;5094952;28;20027;-81
2021/09/21 12:20:06;;;;;;;0.32;0.32;;;;;;;24.00;40.04;99120.25;5096029;28;20040;-80
2021/09/21 12:22:32;;;;;;;0.22;0.22;;;;;;;23.91;40.60;99104.38;5094920;28;20395;-81
2021/09/21 12:25:08;;;;;;;4.07;0.55;;;;;;;24.01;40.44;99107.69;5096188;28;20020;-80
2021/09/21 12:27:37;;;;;;;1.13;0.60;;;;;;;23.55;40.91;99068.84;5094905;28;20024;-83
2021/09/21 12:30:09;;;;;;;0.13;0.13;;;;;;;23.82;40.71;99108.25;5094821;28;20494;-81
2021/09/21 12:32:37;;;;;;;0.20;0.20;;;;;;;23.90;41.57;99114.13;5095785;28;20024;-81
2021/09/21 12:35:08;;;;;;;0.63;0.63;;;;;;;24.01;40.32;99108.44;5095657;28;20479;-83
2021/09/21 12:37:43;;;;;;;2.90;0.80;;;;;;;23.48;40.50;99064.50;5094858;28;20052;-81
2021/09/21 12:40:12;;;;;;;0.40;0.40;;;;;;;23.86;41.03;99108.00;5094779;28;20020;-83
2021/09/21 12:42:39;;;;;;;0.47;0.22;;;;;;;24.09;41.59;99114.34;5095128;28;20020;-83
2021/09/21 12:45:06;;;;;;;0.63;0.63;;;;;;;24.05;40.43;99092.00;5095420;28;20035;-82
2021/09/21 12:47:33;;;;;;;0.57;0.53;;;;;;;24.31;39.95;99102.97;5094301;28;20058;-84
2021/09/21 12:49:59;;;;;;;0.77;0.77;;;;;;;23.97;40.33;99017.63;5094219;28;20266;-84
2021/09/21 12:52:30;;;;;;;0.28;0.28;;;;;;;24.35;40.21;99106.31;5094473;28;20076;-84
2021/09/21 12:54:56;;;;;;;0.85;0.43;;;;;;;24.22;40.45;99101.22;5094561;28;20457;-84
2021/09/21 12:57:22;;;;;;;0.17;0.17;;;;;;;23.61;40.32;99059.06;5094509;28;20031;-83
2021/09/21 12:59:54;;;;;;;0.22;0.22;;;;;;;23.37;40.53;99078.59;5094153;28;20024;-83
2021/09/21 13:02:20;;;;;;;0.57;0.57;;;;;;;23.29;41.82;99050.13;5094334;28;20024;-83
2021/09/21 13:04:45;;;;;;;0.85;0.45;;;;;;;23.42;41.82;99086.25;5095337;28;20081;-83
2021/09/21 13:07:11;;;;;;;0.30;0.30;;;;;;;23.34;41.87;99086.00;5093971;28;20391;-84
2021/09/21 13:09:37;;;;;;;0.40;0.40;;;;;;;22.75;42.06;99063.75;5093948;28;20016;-84
2021/09/21 13:12:04;;;;;;;0.98;0.88;;;;;;;23.00;41.57;99068.38;5093763;28;20542;-84
2021/09/21 13:14:29;;;;;;;0.10;0.10;;;;;;;23.17;42.89;99076.81;5093717;28;20055;-84
2021/09/21 13:16:55;;;;;;;0.47;0.47;;;;;;;23.24;42.06;99093.22;5093753;28;20403;-81
2021/09/21 13:19:20;;;;;;;0.60;0.57;;;;;;;22.91;41.81;99042.47;5093726;28;20024;-82
2021/09/21 13:21:48;;;;;;;0.73;0.73;;;;;;;22.89;42.55;99050.69;5093102;28;20028;-83
2021/09/21 13:24:13;;;;;;;0.47;0.47;;;;;;;23.23;42.32;99093.72;5094057;28;20016;-81
2021/09/21 13:26:39;;;;;;;0.10;0.10;;;;;;;23.00;41.61;99096.53;5093449;28;20027;-82
2021/09/21 13:29:05;;;;;;;0.73;0.68;;;;;;;22.81;42.32;99066.56;5093625;28;20028;-83
2021/09/21 13:31:32;;;;;;;0.20;0.20;;;;;;;22.77;42.59;99054.78;5093172;28;20060;-82
2021/09/21 13:33:58;;;;;;;0.67;0.53;;;;;;;23.10;42.11;99088.59;5093244;28;20024;-82
2021/09/21 13:36:23;;;;;;;0.28;0.28;;;;;;;22.61;41.25;99023.22;5093269;28;20269;-81
2021/09/21 13:38:49;;;;;;;0.52;0.52;;;;;;;22.90;41.53;99069.13;5093327;28;20076;-82
2021/09/21 13:41:21;;;;;;;0.30;0.30;;;;;;;23.01;42.12;99083.22;5093718;28;20023;-82
2021/09/21 13:43:46;;;;;;;0.32;0.32;;;;;;;23.09;42.27;99096.28;5093525;28;20023;-82
2021/09/21 13:46:11;;;;;;;0.77;0.77;;;;;;;22.85;42.78;99076.28;5094329;28;20028;-81
2021/09/21 13:48:37;;;;;;;0.57;0.57;;;;;;;22.68;43.02;99087.50;5094150;28;20375;-82
2021/09/21 13:51:03;;;;;;;0.32;0.32;;;;;;;22.28;42.43;99040.09;5092927;28;20096;-82
2021/09/21 13:53:28;;;;;;;0.63;0.55;;;;;;;22.57;42.86;99084.69;5093481;28;20045;-82
2021/09/21 13:55:53;;;;;;;1.00;1.00;;;;;;;22.72;42.73;99082.41;5091594;28;20020;-81
2021/09/21 13:58:19;;;;;;;0.75;0.63;;;;;;;22.52;42.85;99074.19;5093687;28;20499;-81
2021/09/21 14:00:45;;;;;;;0.80;0.80;;;;;;;22.47;42.18;99058.03;5092657;28;20036;-81
2021/09/21 14:03:11;;;;;;;0.55;0.55;;;;;;;22.61;42.74;99085.19;5093852;28;20027;-80
2021/09/21 14:05:37;;;;;;;0.52;0.52;;;;;;;22.62;42.82;99080.34;5092445;28;20024;-81
2021/09/21 14:08:06;;;;;;;0.30;0.30;;;;;;;22.70;43.23;99084.97;5092602;28;20016;-81
2021/09/21 14:10:31;;;;;;;0.57;0.57;;;;;;;22.49;43.73;99063.16;5093069;28;20030;-81
2021/09/21 14:12:58;;;;;;;0.60;0.60;;;;;;;22.69;42.77;99097.50;5093662;28;20094;-81
2021/09/21 14:15:23;;;;;;;0.40;0.40;;;;;;;22.58;43.14;99079.81;5092416;28;20540;-81
2021/09/21 14:17:50;;;;;;;0.25;0.25;;;;;;;22.51;42.97;99091.59;5092391;28;20114;-81